21kousinmaru — JD2168 — position and weather

sailwx.info

Track history (hours):
 
Tides and Currents Weather Stations Pressure Air Temp Water Temp Dewpoint Dewpoint Depression Visibility Wind Speed Wind Dir Waves Ship Positions

21kousinmaru

Last reported at 2017-Jan-19 11:30 UTC. Time now 2017-Jan-22 18:25 UTC.
Position N 33°42' E 132°19'.

Length 68 m; draft 4.1 m.

MMSI: 431501835.

Date/timePositionNaut miles runAvg speedWind from/ knotsBaromVisibWave heightAir tempDewpointWater temp
2017-Jan-19 11:30N 33°42' E 132°19'  
2017-Jan-16 04:30N 35°18' E 139°44'1010.9
2017-Jan-16 03:33N 35°28' E 139°48'11 2.6
2017-Jan-15 23:10N 35°31' E 140°02'5 9.1
2017-Jan-15 22:34N 35°29' E 139°55'0 0.0
2017-Jan-15 21:34N 35°29' E 139°55'0 0.0
2017-Jan-15 20:33N 35°29' E 139°55'0 0.0
2017-Jan-15 19:33N 35°29' E 139°55'0 0.0
2017-Jan-15 18:34N 35°29' E 139°55'0 0.0
2017-Jan-15 17:33N 35°29' E 139°55'0 0.0
2017-Jan-15 16:33N 35°29' E 139°55'3 2.4
2017-Jan-15 15:23N 35°28' E 139°52'1012.2
2017-Jan-15 14:34N 35°20' E 139°45'  
2017-Jan-12 17:33N 35°17' E 139°45'1010.0
2017-Jan-12 16:33N 35°27' E 139°46'5 4.9
2017-Jan-12 15:33N 35°30' E 139°51'0 0.0
2017-Jan-12 14:33N 35°30' E 139°51'0 0.0
2017-Jan-12 13:33N 35°30' E 139°51'0 0.0
2017-Jan-12 12:33N 35°30' E 139°51'0 0.0
2017-Jan-12 11:33N 35°30' E 139°51'0 0.0
2017-Jan-12 10:33N 35°30' E 139°51'0 0.0
2017-Jan-12 09:33N 35°30' E 139°51'0 0.0
2017-Jan-12 08:33N 35°30' E 139°51'0 0.0
2017-Jan-12 07:33N 35°30' E 139°51'0 0.0
2017-Jan-12 06:33N 35°30' E 139°51'0 0.0
2017-Jan-12 05:33N 35°30' E 139°51'3 0.3
2017-Jan-11 18:27N 35°29' E 139°54'0 0.0
2017-Jan-11 17:33N 35°29' E 139°54'0 0.0
2017-Jan-11 16:31N 35°29' E 139°54'2 2.2
2017-Jan-11 15:32N 35°28' E 139°52'1212.3
2017-Jan-11 14:33N 35°18' E 139°45'1211.9
2017-Jan-11 13:32N 35°06' E 139°46'3 0.1
2017-Jan-10 07:26N 35°09' E 139°45'1112.3
2017-Jan-10 06:32N 35°20' E 139°43'1111.5
2017-Jan-10 05:34N 35°30' E 139°47'1 0.9
2017-Jan-10 04:34N 35°31' E 139°46'0 0.0
2017-Jan-10 03:34N 35°31' E 139°46'0 0.0
2017-Jan-10 02:34N 35°31' E 139°46'0 0.0
2017-Jan-10 01:34N 35°31' E 139°46'0 0.0
2017-Jan-10 00:34N 35°31' E 139°46'0 0.0
2017-Jan-09 23:34N 35°31' E 139°46'0 0.0
2017-Jan-09 22:34N 35°31' E 139°46'4 3.6
2017-Jan-09 21:34N 35°31' E 139°51'0 0.0
2017-Jan-09 20:33N 35°31' E 139°51'0 0.0
2017-Jan-09 19:34N 35°31' E 139°51'0 0.0
2017-Jan-09 18:34N 35°31' E 139°51'0 0.1
2017-Jan-09 17:33N 35°31' E 139°51'0 0.0
2017-Jan-09 16:34N 35°31' E 139°51'0 0.0
2017-Jan-09 15:34N 35°31' E 139°51'0 0.0
2017-Jan-09 14:34N 35°31' E 139°51'0 0.0
2017-Jan-09 13:33N 35°31' E 139°51'0 0.0
2017-Jan-09 12:34N 35°31' E 139°51'0 0.0
2017-Jan-09 11:34N 35°31' E 139°51'  
Track history (hours):
 
Tides and Currents Weather Stations Pressure Air Temp Water Temp Dewpoint Dewpoint Depression Visibility Wind Speed Wind Dir Waves Ship Positions

21kousinmaru

Last reported at 2017-Jan-19 11:30 UTC. Time now 2017-Jan-22 18:25 UTC.
Position N 33°42' E 132°19'.

Length 68 m; draft 4.1 m.

MMSI: 431501835.

Date/timePositionNaut miles runAvg speedWind from/ knotsBaromVisibWave heightAir tempDewpointWater temp
2017-Jan-19 11:30N 33°42' E 132°19'  
2017-Jan-16 04:30N 35°18' E 139°44'1010.9
2017-Jan-16 03:33N 35°28' E 139°48'11 2.6
2017-Jan-15 23:10N 35°31' E 140°02'5 9.1
2017-Jan-15 22:34N 35°29' E 139°55'0 0.0
2017-Jan-15 21:34N 35°29' E 139°55'0 0.0
2017-Jan-15 20:33N 35°29' E 139°55'0 0.0
2017-Jan-15 19:33N 35°29' E 139°55'0 0.0
2017-Jan-15 18:34N 35°29' E 139°55'0 0.0
2017-Jan-15 17:33N 35°29' E 139°55'0 0.0
2017-Jan-15 16:33N 35°29' E 139°55'3 2.4
2017-Jan-15 15:23N 35°28' E 139°52'1012.2
2017-Jan-15 14:34N 35°20' E 139°45'  
2017-Jan-12 17:33N 35°17' E 139°45'1010.0
2017-Jan-12 16:33N 35°27' E 139°46'5 4.9
2017-Jan-12 15:33N 35°30' E 139°51'0 0.0
2017-Jan-12 14:33N 35°30' E 139°51'0 0.0
2017-Jan-12 13:33N 35°30' E 139°51'0 0.0
2017-Jan-12 12:33N 35°30' E 139°51'0 0.0
2017-Jan-12 11:33N 35°30' E 139°51'0 0.0
2017-Jan-12 10:33N 35°30' E 139°51'0 0.0
2017-Jan-12 09:33N 35°30' E 139°51'0 0.0
2017-Jan-12 08:33N 35°30' E 139°51'0 0.0
2017-Jan-12 07:33N 35°30' E 139°51'0 0.0
2017-Jan-12 06:33N 35°30' E 139°51'0 0.0
2017-Jan-12 05:33N 35°30' E 139°51'3 0.3
2017-Jan-11 18:27N 35°29' E 139°54'0 0.0
2017-Jan-11 17:33N 35°29' E 139°54'0 0.0
2017-Jan-11 16:31N 35°29' E 139°54'2 2.2
2017-Jan-11 15:32N 35°28' E 139°52'1212.3
2017-Jan-11 14:33N 35°18' E 139°45'1211.9
2017-Jan-11 13:32N 35°06' E 139°46'3 0.1
2017-Jan-10 07:26N 35°09' E 139°45'1112.3
2017-Jan-10 06:32N 35°20' E 139°43'1111.5
2017-Jan-10 05:34N 35°30' E 139°47'1 0.9
2017-Jan-10 04:34N 35°31' E 139°46'0 0.0
2017-Jan-10 03:34N 35°31' E 139°46'0 0.0
2017-Jan-10 02:34N 35°31' E 139°46'0 0.0
2017-Jan-10 01:34N 35°31' E 139°46'0 0.0
2017-Jan-10 00:34N 35°31' E 139°46'0 0.0
2017-Jan-09 23:34N 35°31' E 139°46'0 0.0
2017-Jan-09 22:34N 35°31' E 139°46'4 3.6
2017-Jan-09 21:34N 35°31' E 139°51'0 0.0
2017-Jan-09 20:33N 35°31' E 139°51'0 0.0
2017-Jan-09 19:34N 35°31' E 139°51'0 0.0
2017-Jan-09 18:34N 35°31' E 139°51'0 0.1
2017-Jan-09 17:33N 35°31' E 139°51'0 0.0
2017-Jan-09 16:34N 35°31' E 139°51'0 0.0
2017-Jan-09 15:34N 35°31' E 139°51'0 0.0
2017-Jan-09 14:34N 35°31' E 139°51'0 0.0
2017-Jan-09 13:33N 35°31' E 139°51'0 0.0
2017-Jan-09 12:34N 35°31' E 139°51'0 0.0
2017-Jan-09 11:34N 35°31' E 139°51'  

Dump ship's entire track history